Time;durP1;ratioP1;P1;durP2;ratioP2;P2;SDS_P1;SDS_P2;PMS_P1;PMS_P2;Temp;Humidity;BMP_temperature;BMP_pressure;BME280_temperature;BME280_humidity;BME280_pressure;Samples;Min_cycle;Max_cycle;Signal;HPM_P1;HPM_P2
2023/07/12 00:01:21;;;;;;;156.82;94.35;;;;;;;;;;4982087;28;20046;-54
2023/07/12 00:03:47;;;;;;;52.50;31.75;;;;;;;;;;4984279;28;20114;-56
2023/07/12 00:06:13;;;;;;;259.45;232.48;;;;;;;;;;4982043;28;20034;-54
2023/07/12 00:08:40;;;;;;;120.45;91.88;;;;;;;;;;4981416;28;20026;-55
2023/07/12 00:11:12;;;;;;;137.90;123.20;;;;;;;;;;4983753;28;20035;-54
2023/07/12 00:13:38;;;;;;;252.23;226.60;;;;;;;;;;4983127;28;20033;-53
2023/07/12 00:16:10;;;;;;;168.18;151.95;;;;;;;;;;4981768;28;20044;-52
2023/07/12 00:18:35;;;;;;;;;;;;;;;;;;4983998;28;20010;-53
2023/07/12 00:21:00;;;;;;;114.45;33.97;;;;;;;;;;4984507;28;20251;-53
2023/07/12 00:23:25;;;;;;;119.67;65.63;;;;;;;;;;4982741;28;20456;-53
2023/07/12 00:25:51;;;;;;;67.07;28.77;;;;;;;;;;4981994;28;20432;-53
2023/07/12 00:28:19;;;;;;;225.97;194.80;;;;;;;;;;4982639;28;20388;-53
2023/07/12 00:30:44;;;;;;;299.85;270.60;;;;;;;;;;4979613;28;20281;-52
2023/07/12 00:33:09;;;;;;;205.20;93.40;;;;;;;;;;4984175;28;20022;-54
2023/07/12 00:35:36;;;;;;;94.20;21.73;;;;;;;;;;4982931;28;20763;-53
2023/07/12 00:38:01;;;;;;;124.18;85.47;;;;;;;;;;4982053;28;20343;-55
2023/07/12 00:40:35;;;;;;;360.65;320.75;;;;;;;;;;4981884;28;20044;-53
2023/07/12 00:43:05;;;;;;;170.93;96.55;;;;;;;;;;4981207;28;20040;-54
2023/07/12 00:45:31;;;;;;;299.75;159.93;;;;;;;;;;4982682;28;20033;-53
2023/07/12 00:47:57;;;;;;;112.78;87.50;;;;;;;;;;4981452;28;20500;-54
2023/07/12 00:50:22;;;;;;;101.65;30.95;;;;;;;;;;4981866;28;20081;-52
2023/07/12 00:52:47;;;;;;;64.47;49.72;;;;;;;;;;4980119;28;20115;-56
2023/07/12 00:55:31;;;;;;;206.40;187.07;;;;;;;;;;4981199;28;20028;-53
2023/07/12 00:57:57;;;;;;;202.80;181.82;;;;;;;;;;4982526;28;20038;-55
2023/07/12 01:00:22;;;;;;;186.60;168.10;;;;;;;;;;4981169;28;20042;-55
2023/07/12 01:02:47;;;;;;;360.07;320.43;;;;;;;;;;4982113;28;20026;-52
2023/07/12 01:05:13;;;;;;;332.98;299.17;;;;;;;;;;4983515;28;20069;-56
2023/07/12 01:07:38;;;;;;;318.67;214.73;;;;;;;;;;4980981;28;20060;-54
2023/07/12 01:10:04;;;;;;;44.40;31.10;;;;;;;;;;4982624;28;20270;-54
2023/07/12 01:12:29;;;;;;;151.00;109.85;;;;;;;;;;4981338;28;20606;-53
2023/07/12 01:14:54;;;;;;;24.00;5.80;;;;;;;;;;4980866;28;20061;-55
2023/07/12 01:17:21;;;;;;;134.38;88.40;;;;;;;;;;4981116;28;20636;-53
2023/07/12 01:19:46;;;;;;;363.90;324.58;;;;;;;;;;4982449;28;20053;-54
2023/07/12 01:22:12;;;;;;;300.40;224.93;;;;;;;;;;4981853;28;20077;-53
2023/07/12 01:24:37;;;;;;;285.67;217.50;;;;;;;;;;4982801;28;20479;-53
2023/07/12 01:27:23;;;;;;;283.00;189.20;;;;;;;;;;4980765;28;20504;-53
2023/07/12 01:29:49;;;;;;;23.25;6.30;;;;;;;;;;4979428;28;20021;-54
2023/07/12 01:32:14;;;;;;;17.85;5.13;;;;;;;;;;4980772;28;20292;-54
2023/07/12 01:34:40;;;;;;;155.07;134.70;;;;;;;;;;4982179;28;20518;-56
2023/07/12 01:37:05;;;;;;;55.50;50.03;;;;;;;;;;4982863;28;20033;-54
2023/07/12 01:39:32;;;;;;;16.38;4.88;;;;;;;;;;4982675;28;20022;-56
2023/07/12 01:41:57;;;;;;;23.05;7.55;;;;;;;;;;4981629;28;20496;-58
2023/07/12 01:44:22;;;;;;;215.47;30.87;;;;;;;;;;4981458;28;20049;-57
2023/07/12 01:46:48;;;;;;;24.20;9.67;;;;;;;;;;4981761;28;20841;-56
2023/07/12 01:49:13;;;;;;;16.10;5.23;;;;;;;;;;4981564;28;20297;-54
2023/07/12 01:51:38;;;;;;;28.27;18.93;;;;;;;;;;4983589;28;20157;-53
2023/07/12 01:54:03;;;;;;;9.88;3.70;;;;;;;;;;4982242;28;20754;-54
2023/07/12 01:56:28;;;;;;;15.53;4.83;;;;;;;;;;4980915;28;20433;-56
2023/07/12 01:58:54;;;;;;;30.33;7.67;;;;;;;;;;4982808;28;20258;-57
2023/07/12 02:01:19;;;;;;;13.77;4.90;;;;;;;;;;4981144;28;20384;-57
2023/07/12 02:03:45;;;;;;;14.80;4.45;;;;;;;;;;4984108;28;20373;-55
2023/07/12 02:06:10;;;;;;;13.30;6.23;;;;;;;;;;4985641;28;20495;-55
2023/07/12 02:08:35;;;;;;;11.87;3.90;;;;;;;;;;4990031;28;20249;-56
2023/07/12 02:11:00;;;;;;;12.63;4.33;;;;;;;;;;4988470;28;20254;-54
2023/07/12 02:13:25;;;;;;;17.27;7.57;;;;;;;;;;4989305;28;20332;-56
2023/07/12 02:15:51;;;;;;;11.45;3.60;;;;;;;;;;4989358;28;20364;-55
2023/07/12 02:18:16;;;;;;;12.00;4.25;;;;;;;;;;4989008;28;20018;-54
2023/07/12 17:42:50;;;;;;;238.82;221.02;;;;;;;;;;5018957;28;20040;-59
2023/07/12 17:45:19;;;;;;;370.35;338.70;;;;;;;;;;5021699;28;20029;-58
2023/07/12 17:47:44;;;;;;;332.23;303.02;;;;;;;;;;5022962;28;20479;-58
2023/07/12 17:50:09;;;;;;;189.23;173.87;;;;;;;;;;5023020;28;20028;-60
2023/07/12 17:52:34;;;;;;;212.18;194.65;;;;;;;;;;5022241;28;20464;-60
2023/07/12 17:55:00;;;;;;;458.97;413.90;;;;;;;;;;5023590;28;20036;-58
2023/07/12 17:57:27;;;;;;;232.53;214.07;;;;;;;;;;5026113;28;20913;-56
2023/07/12 17:59:53;;;;;;;462.88;416.98;;;;;;;;;;5025219;28;20182;-59
2023/07/12 18:02:20;;;;;;;226.15;207.75;;;;;;;;;;5024985;28;20057;-58
2023/07/12 18:04:46;;;;;;;289.27;260.52;;;;;;;;;;5026073;28;20060;-56
2023/07/12 18:07:23;;;;;;;181.95;168.43;;;;;;;;;;5027661;28;20152;-59
2023/07/12 18:09:50;;;;;;;170.18;156.90;;;;;;;;;;5025034;28;20030;-56
2023/07/12 18:12:16;;;;;;;331.23;302.42;;;;;;;;;;5024843;28;20095;-57
2023/07/12 18:14:42;;;;;;;173.07;158.80;;;;;;;;;;5023496;28;20018;-58
2023/07/12 18:17:19;;;;;;;217.50;199.75;;;;;;;;;;5026849;28;20051;-59
2023/07/12 18:19:44;;;;;;;355.13;322.38;;;;;;;;;;5024813;28;20032;-59
2023/07/12 18:22:11;;;;;;;166.52;152.32;;;;;;;;;;5025601;28;20029;-59
2023/07/12 18:24:36;;;;;;;250.48;230.55;;;;;;;;;;5024863;28;20214;-56
2023/07/12 18:27:01;;;;;;;173.53;158.77;;;;;;;;;;5026120;28;20056;-56
2023/07/12 18:29:26;;;;;;;351.97;322.17;;;;;;;;;;5025072;28;20107;-59
2023/07/12 18:31:52;;;;;;;241.17;221.83;;;;;;;;;;5025879;28;20573;-56
2023/07/12 18:34:17;;;;;;;242.10;222.73;;;;;;;;;;5024772;28;20454;-57
2023/07/12 18:36:43;;;;;;;325.27;298.77;;;;;;;;;;5024545;28;20454;-60
2023/07/12 18:39:09;;;;;;;268.83;249.50;;;;;;;;;;5025468;28;20107;-58
2023/07/12 18:41:35;;;;;;;301.05;274.83;;;;;;;;;;5025890;28;20474;-58
2023/07/12 18:44:00;;;;;;;279.27;253.63;;;;;;;;;;5025981;28;20014;-58
2023/07/12 18:46:26;;;;;;;292.27;268.52;;;;;;;;;;5023009;28;20033;-59
2023/07/12 18:48:52;;;;;;;222.05;204.48;;;;;;;;;;5027133;28;20221;-57
2023/07/12 18:51:24;;;;;;;221.77;204.83;;;;;;;;;;5027029;28;20277;-59
2023/07/12 18:53:50;;;;;;;225.93;207.85;;;;;;;;;;5024923;28;20292;-56
2023/07/12 18:56:24;;;;;;;272.30;249.02;;;;;;;;;;5025574;28;20120;-56
2023/07/12 18:58:49;;;;;;;366.95;334.25;;;;;;;;;;5024296;28;20333;-58
2023/07/12 19:01:16;;;;;;;334.65;307.88;;;;;;;;;;5027083;28;20116;-59
2023/07/12 19:03:42;;;;;;;227.95;209.68;;;;;;;;;;5022844;28;20466;-57
2023/07/12 19:06:14;;;;;;;327.73;301.60;;;;;;;;;;5026037;28;20029;-58
2023/07/12 19:08:39;;;;;;;;;;;;;;;;;;5024535;28;20065;-58
2023/07/12 19:11:04;;;;;;;253.40;233.20;;;;;;;;;;5004541;28;19917;-56
2023/07/12 19:13:30;;;;;;;347.42;316.73;;;;;;;;;;5023006;28;20028;-57
2023/07/12 19:15:55;;;;;;;217.20;199.63;;;;;;;;;;5020801;28;20041;-55
2023/07/12 19:18:20;;;;;;;246.77;227.38;;;;;;;;;;5024193;28;20013;-55
2023/07/12 19:20:45;;;;;;;277.87;256.07;;;;;;;;;;5023440;28;20056;-56
2023/07/12 19:23:15;;;;;;;252.30;232.20;;;;;;;;;;5023975;28;20036;-59
2023/07/12 19:25:41;;;;;;;301.25;278.17;;;;;;;;;;5023268;28;20287;-57
2023/07/12 19:28:06;;;;;;;221.50;203.95;;;;;;;;;;5025322;28;20012;-59
2023/07/12 19:30:32;;;;;;;253.32;234.30;;;;;;;;;;5024960;28;20037;-57
2023/07/12 19:32:57;;;;;;;214.20;197.63;;;;;;;;;;5022857;28;21331;-57
2023/07/12 19:35:32;;;;;;;225.82;207.80;;;;;;;;;;5023728;28;20052;-57
2023/07/12 19:37:58;;;;;;;338.30;310.80;;;;;;;;;;5023677;28;20621;-59
2023/07/12 19:40:23;;;;;;;277.70;256.55;;;;;;;;;;5024403;28;20679;-57
2023/07/12 19:42:50;;;;;;;223.85;205.98;;;;;;;;;;5023672;28;20025;-59
2023/07/12 19:45:22;;;;;;;229.65;211.15;;;;;;;;;;5025821;28;20025;-57
2023/07/12 19:47:47;;;;;;;253.77;233.95;;;;;;;;;;5022057;28;20106;-59
2023/07/12 19:50:13;;;;;;;345.58;316.50;;;;;;;;;;5023634;28;20029;-57
2023/07/12 19:52:39;;;;;;;214.52;198.48;;;;;;;;;;5025104;28;20452;-57
2023/07/12 19:55:04;;;;;;;228.00;210.57;;;;;;;;;;5022251;28;20057;-57
2023/07/12 19:57:29;;;;;;;237.35;218.63;;;;;;;;;;5021996;28;20992;-58
2023/07/12 19:59:55;;;;;;;267.73;247.13;;;;;;;;;;5022683;28;20037;-56
2023/07/12 20:02:21;;;;;;;261.08;241.43;;;;;;;;;;5021055;28;20434;-58
2023/07/12 20:04:47;;;;;;;294.98;270.33;;;;;;;;;;5021362;28;20048;-58
2023/07/12 20:07:12;;;;;;;283.97;261.57;;;;;;;;;;5024274;28;20597;-57
2023/07/12 20:09:37;;;;;;;308.20;283.98;;;;;;;;;;5023779;28;20353;-59
2023/07/12 20:12:03;;;;;;;332.58;306.30;;;;;;;;;;5019681;28;20388;-60
2023/07/12 20:14:29;;;;;;;294.70;270.60;;;;;;;;;;5008202;28;20698;-59
2023/07/12 20:16:54;;;;;;;269.48;248.15;;;;;;;;;;5020807;28;20594;-59
2023/07/12 20:19:19;;;;;;;277.90;255.90;;;;;;;;;;5022055;28;20025;-58
2023/07/12 20:21:45;;;;;;;209.57;193.63;;;;;;;;;;5023847;28;20072;-58
2023/07/12 20:24:10;;;;;;;353.13;324.33;;;;;;;;;;5024329;28;20603;-58
2023/07/12 20:26:35;;;;;;;273.38;251.60;;;;;;;;;;5024302;28;20281;-59
2023/07/12 20:29:01;;;;;;;334.70;308.73;;;;;;;;;;5025242;28;20029;-59
2023/07/12 20:31:26;;;;;;;270.40;249.52;;;;;;;;;;5024104;28;20753;-57
2023/07/12 20:33:51;;;;;;;350.47;321.23;;;;;;;;;;5021205;28;20033;-58
2023/07/12 20:36:17;;;;;;;462.05;423.48;;;;;;;;;;5024743;28;20327;-58
2023/07/12 20:38:42;;;;;;;271.80;250.65;;;;;;;;;;5024856;28;20600;-56
2023/07/12 20:41:08;;;;;;;387.52;355.73;;;;;;;;;;5021778;28;20040;-57
2023/07/12 20:43:33;;;;;;;365.77;337.20;;;;;;;;;;5025251;28;20020;-58
2023/07/12 20:46:00;;;;;;;338.30;309.70;;;;;;;;;;5022403;28;20069;-56
2023/07/12 20:48:29;;;;;;;306.38;282.10;;;;;;;;;;5024185;28;20271;-59
2023/07/12 20:50:55;;;;;;;442.73;403.95;;;;;;;;;;5021719;28;20455;-59
2023/07/12 20:53:21;;;;;;;318.45;292.40;;;;;;;;;;5022316;28;20494;-59
2023/07/12 20:55:46;;;;;;;313.80;289.40;;;;;;;;;;5019696;28;20264;-59
2023/07/12 20:58:12;;;;;;;248.35;229.25;;;;;;;;;;5023070;28;20071;-59
2023/07/12 21:00:37;;;;;;;291.80;269.03;;;;;;;;;;5023127;28;20455;-56
2023/07/12 21:03:02;;;;;;;351.90;320.92;;;;;;;;;;5021765;28;20298;-58
2023/07/12 21:05:28;;;;;;;340.40;312.73;;;;;;;;;;5021638;28;20036;-58
2023/07/12 21:07:53;;;;;;;471.02;427.88;;;;;;;;;;5021529;28;20271;-56
2023/07/12 21:10:19;;;;;;;347.75;319.40;;;;;;;;;;5020980;28;20387;-60
2023/07/12 21:12:45;;;;;;;369.40;338.25;;;;;;;;;;5021539;28;20071;-56
2023/07/12 21:15:10;;;;;;;326.67;301.38;;;;;;;;;;5020766;28;20104;-58
2023/07/12 21:17:35;;;;;;;379.13;347.08;;;;;;;;;;5022275;28;20519;-59
2023/07/12 21:20:03;;;;;;;306.58;281.42;;;;;;;;;;5020250;28;20026;-59
2023/07/12 21:22:28;;;;;;;352.60;321.02;;;;;;;;;;5020520;28;20040;-58
2023/07/12 21:24:54;;;;;;;378.97;340.60;;;;;;;;;;5019740;28;20077;-57
2023/07/12 21:27:20;;;;;;;340.60;313.27;;;;;;;;;;5023745;28;20280;-53
2023/07/12 21:29:47;;;;;;;365.05;335.35;;;;;;;;;;5024572;28;20025;-57
2023/07/12 21:32:12;;;;;;;389.75;357.48;;;;;;;;;;5024953;28;20033;-56
2023/07/12 21:34:37;;;;;;;357.33;328.00;;;;;;;;;;5027500;28;20320;-57
2023/07/12 21:37:24;;;;;;;281.77;258.03;;;;;;;;;;5024419;28;20041;-57
2023/07/12 21:39:50;;;;;;;281.92;258.50;;;;;;;;;;5023403;28;20021;-57
2023/07/12 21:42:18;;;;;;;326.27;298.75;;;;;;;;;;5025282;28;20034;-58
2023/07/12 21:44:44;;;;;;;322.88;296.73;;;;;;;;;;5025682;28;20024;-59
2023/07/12 21:47:10;;;;;;;386.40;353.73;;;;;;;;;;5024886;28;20387;-57
2023/07/12 21:52:38;;;;;;;452.63;412.65;;;;;;;;;;5025463;28;20079;-56
2023/07/12 21:55:03;;;;;;;451.17;408.43;;;;;;;;;;5024153;28;20045;-57
2023/07/12 21:57:29;;;;;;;445.15;402.90;;;;;;;;;;5024133;28;20272;-56
2023/07/12 21:59:54;;;;;;;397.35;364.58;;;;;;;;;;5023093;28;20044;-58
2023/07/12 22:02:20;;;;;;;366.83;334.98;;;;;;;;;;5024530;28;20061;-58
2023/07/12 22:04:45;;;;;;;328.83;303.20;;;;;;;;;;5026290;28;20503;-57
2023/07/12 22:07:10;;;;;;;405.75;365.83;;;;;;;;;;5027404;28;20032;-59
2023/07/12 22:09:36;;;;;;;390.90;354.30;;;;;;;;;;5026782;28;20029;-57
2023/07/12 22:12:01;;;;;;;276.75;248.52;;;;;;;;;;5024802;28;20318;-56
2023/07/12 22:14:26;;;;;;;330.43;302.60;;;;;;;;;;5025275;28;20124;-57
2023/07/12 22:16:51;;;;;;;372.93;331.97;;;;;;;;;;5025020;28;21185;-57
2023/07/12 22:19:17;;;;;;;457.65;416.00;;;;;;;;;;5026162;28;20319;-57
2023/07/12 22:21:42;;;;;;;352.93;318.40;;;;;;;;;;5026189;28;20033;-58
2023/07/12 22:24:07;;;;;;;348.37;316.37;;;;;;;;;;5024335;28;20026;-56
2023/07/12 22:26:33;;;;;;;330.27;301.63;;;;;;;;;;5023638;28;20269;-57
2023/07/12 22:28:58;;;;;;;335.60;306.53;;;;;;;;;;5025367;28;20100;-56
2023/07/12 22:31:23;;;;;;;332.97;305.90;;;;;;;;;;5025335;28;20797;-56
2023/07/12 22:33:49;;;;;;;329.37;302.50;;;;;;;;;;5026438;28;20024;-56
2023/07/12 22:36:14;;;;;;;373.13;341.58;;;;;;;;;;5024077;28;20264;-56
2023/07/12 22:38:40;;;;;;;333.08;304.92;;;;;;;;;;5027485;28;20289;-57
2023/07/12 22:41:05;;;;;;;315.52;289.73;;;;;;;;;;5022335;28;20033;-55
2023/07/12 22:43:31;;;;;;;360.08;328.33;;;;;;;;;;5022629;28;20096;-57
2023/07/12 22:46:01;;;;;;;377.13;344.20;;;;;;;;;;5021717;28;20491;-56
2023/07/12 22:48:26;;;;;;;341.90;312.88;;;;;;;;;;5021057;28;20014;-57
2023/07/12 22:50:52;;;;;;;363.77;333.05;;;;;;;;;;5020390;28;20103;-56
2023/07/12 22:53:17;;;;;;;357.00;324.92;;;;;;;;;;5021871;28;20029;-55
2023/07/12 22:55:42;;;;;;;321.50;295.80;;;;;;;;;;5019826;28;20131;-57
2023/07/12 22:58:08;;;;;;;359.05;320.65;;;;;;;;;;5020432;28;20919;-57
2023/07/12 23:00:33;;;;;;;328.73;300.58;;;;;;;;;;5022564;28;20615;-55
2023/07/12 23:02:59;;;;;;;335.73;306.42;;;;;;;;;;5021412;28;20315;-58
2023/07/12 23:05:24;;;;;;;425.63;384.67;;;;;;;;;;5017513;28;20099;-57
2023/07/12 23:07:49;;;;;;;340.95;311.95;;;;;;;;;;5024580;28;20130;-58
2023/07/12 23:10:18;;;;;;;413.07;373.83;;;;;;;;;;5020015;28;20092;-57
2023/07/12 23:12:44;;;;;;;457.63;413.15;;;;;;;;;;5021803;28;20267;-56
2023/07/12 23:15:10;;;;;;;331.25;302.92;;;;;;;;;;5021494;28;20092;-56
2023/07/12 23:17:35;;;;;;;321.08;293.67;;;;;;;;;;5023684;28;20647;-58
2023/07/12 23:20:00;;;;;;;360.00;320.20;;;;;;;;;;5023355;28;20090;-57
2023/07/12 23:22:26;;;;;;;407.33;369.37;;;;;;;;;;5023778;28;20037;-57
2023/07/12 23:24:51;;;;;;;372.13;336.17;;;;;;;;;;5023970;28;20013;-55
2023/07/12 23:27:17;;;;;;;384.23;351.85;;;;;;;;;;5019450;28;20076;-56
2023/07/12 23:29:43;;;;;;;365.98;331.13;;;;;;;;;;5022741;28;20028;-58
2023/07/12 23:32:08;;;;;;;378.30;344.30;;;;;;;;;;5021891;28;20037;-57
2023/07/12 23:34:34;;;;;;;359.13;306.33;;;;;;;;;;5023369;28;20026;-57
2023/07/12 23:36:59;;;;;;;385.60;351.13;;;;;;;;;;5021111;28;20033;-57
2023/07/12 23:39:25;;;;;;;359.60;324.85;;;;;;;;;;5022040;28;20450;-57
2023/07/12 23:41:50;;;;;;;383.88;346.13;;;;;;;;;;5021160;28;20037;-56
2023/07/12 23:44:15;;;;;;;384.40;348.23;;;;;;;;;;5020729;28;20558;-56
2023/07/12 23:46:47;;;;;;;385.77;348.90;;;;;;;;;;5022435;28;20565;-58
2023/07/12 23:49:13;;;;;;;293.15;269.25;;;;;;;;;;5021856;28;20263;-58
2023/07/12 23:51:38;;;;;;;285.33;260.92;;;;;;;;;;5024252;28;20342;-56
2023/07/12 23:54:05;;;;;;;309.13;282.00;;;;;;;;;;5022926;28;20025;-55
2023/07/12 23:56:33;;;;;;;259.42;238.32;;;;;;;;;;5022032;28;20036;-57
2023/07/12 23:58:58;;;;;;;405.45;364.90;;;;;;;;;;5020450;28;20009;-55
